Lewisburg, Arkansas
Current Conditions -  °F | °C
As of 7:53 AM on Friday 19 Dec 2014 (Local Time) from KRUE Reporting Station
Haze Haze  
Wind Chill: 41°   Ceiling: 600
Heat Index: 41°   Visibility: 4mi
Dew Point: 39°   Wind: 3mph
Humidity: 93%   Direction: NA
Pressure: 30.25"   Gusts: NA
Location:  35.227°N, 92.6879°W
Report Text: KRUE 191353Z AUTO VRB03KT 4SM BR OVC006 05/04 A3025 RMK AO2 SLP241 T00500039
Loading
Personal Weather Stations






























Interactive Weather Map New forecast layout! Learn more

10-Day Weather Forecast

Advertisements
Track Severe Weather on mobile